Flight Track Log - Related Links

Times and Time Zones

All times are in EDT time to prevent confusion due to time zone crossing. See the DAL1562 flight status page for this flight to view local times or setup timezone preferences in your user account.

Time Position Orientation Groundspeed Altitude Reporting Facility
EDT Latitude Longitude Course Direction KTS km/h feet Rate Location/Type
Sat 14:15:49 42.2081 -83.3528 178° South 147 272 1,600  Level Cleveland Center
Sat 14:16:24 42.1786 -83.3511 178° South 212 393 2,800 2,182 Climbing FAA TRACON SMA TRACON (SMA)
Sat 14:16:44 42.1606 -83.3489 175° South 231 428 3,600 3,450 Climbing FAA TRACON SMA TRACON (SMA)
Sat 14:17:04 42.1361 -83.3447 173° South 238 441 5,100 3,150 Climbing FAA TRACON SMA TRACON (SMA)
Sat 14:17:24 42.1222 -83.3408 168° South 236 438 5,700 3,150 Climbing FAA TRACON SMA TRACON (SMA)
Sat 14:17:44 42.0978 -83.3153 142° Southeast 275 509 7,200 3,900 Climbing FAA TRACON SMA TRACON (SMA)
Sat 14:18:04 42.0878 -83.2850 114° Southeast 294 544 8,300 2,850 Climbing FAA TRACON SMA TRACON (SMA)
Sat 14:18:24 42.0808 -83.2417 102° East 326 604 9,100 2,100 Climbing FAA TRACON SMA TRACON (SMA)
Sat 14:18:44 42.0867 -83.2061 78° East 317 587 9,700 1,500 Climbing FAA TRACON SMA TRACON (SMA)
Sat 14:19:04 42.0933 -83.1689 76° East 339 628 10,100 1,800 Climbing FAA TRACON SMA TRACON (SMA)
Sat 14:19:24 42.1019 -83.1192 77° East 366 678 10,900 2,100 Climbing FAA TRACON SMA TRACON (SMA)
Sat 14:19:44 42.1092 -83.0767 77° East 390 723 11,500 1,800 Climbing FAA TRACON SMA TRACON (SMA)
Sat 14:20:04 42.1158 -83.0322 79° East 401 742 12,100 2,850 Climbing FAA TRACON SMA TRACON (SMA)
Sat 14:20:24 42.1256 -82.9753 77° East 413 764 13,400 3,150 Climbing FAA TRACON SMA TRACON (SMA)
Sat 14:20:44 42.1333 -82.9294 77° East 415 769 14,200 2,462 Climbing FAA TRACON SMA TRACON (SMA)
Sat 14:21:03 42.1428 -82.8825 75° East 421 779 15,000 2,308 Climbing FAA TRACON SMA TRACON (SMA)
Sat 14:21:23 42.1517 -82.8344 76° East 429 795 15,700 2,700 Climbing FAA TRACON SMA TRACON (SMA)
Sat 14:21:43 42.1639 -82.7739 75° East 437 810 16,800 2,850 Climbing FAA TRACON SMA TRACON (SMA)
Sat 14:22:03 42.1736 -82.7244 75° East 442 819 17,600 2,550 Climbing FAA TRACON SMA TRACON (SMA)
Sat 14:22:23 42.1833 -82.6747 75° East 444 822 18,500 2,850 Climbing FAA TRACON SMA TRACON (SMA)
Sat 14:22:43 42.1947 -82.6114 76° East 450 834 19,500 2,550 Climbing FAA TRACON SMA TRACON (SMA)
Sat 14:23:03 42.2042 -82.5603 76° East 454 840 20,200 2,049 Climbing FAA TRACON SMA TRACON (SMA)
Sat 14:23:24 42.2139 -82.5083 76° East 463 858 20,900 2,049 Climbing FAA TRACON SMA TRACON (SMA)
Sat 14:23:44 42.2206 -82.4397 83° East 477 884 21,600 2,100 Climbing FAA TRACON SMA TRACON (SMA)
Sat 14:24:04 42.2206 -82.3844 90° East 481 892 22,300 1,800 Climbing FAA TRACON SMA TRACON (SMA)
Sat 14:24:24 42.2158 -82.3283 96° East 495 917 22,800 2,100 Climbing FAA TRACON SMA TRACON (SMA)
Sat 14:24:44 42.2106 -82.2569 96° East 500 925 23,700 1,950 Climbing FAA TRACON SMA TRACON (SMA)
Sat 14:25:04 42.2169 -82.2286 73° East 603 1117 24,100 897 Climbing FAA TRACON SMA TRACON (SMA)
Sat 14:26:11 42.1889 -81.9872 99° East 489 906 25,000 425 Climbing Cleveland Center
Sat 14:27:11 42.1114 -81.8483 127° Southeast 461 855 25,000  Level Cleveland Center
Sat 14:28:11 42.0228 -81.7458 139° Southeast 461 855 25,000  Level Cleveland Center
Sat 14:29:11 41.9281 -81.6353 139° Southeast 466 863 25,000  Level Cleveland Center
Sat 14:30:11 41.8311 -81.5222 139° Southeast 461 855 25,000  Level Cleveland Center
Sat 14:31:11 41.7339 -81.4094 139° Southeast 461 855 25,000  Level Cleveland Center
Sat 14:32:11 41.6242 -81.2886 141° Southeast 461 855 25,000  Level Cleveland Center
Sat 14:33:11 41.5289 -81.1767 139° Southeast 461 855 25,000  Level Cleveland Center
Sat 14:34:11 41.4378 -81.0539 135° Southeast 461 855 25,000  Level Cleveland Center
Sat 14:35:11 41.3467 -80.9289 134° Southeast 461 855 25,000  Level Cleveland Center
Sat 14:36:11 41.2594 -80.8014 132° Southeast 466 863 25,000  Level Cleveland Center
Sat 14:37:11 41.1678 -80.6797 135° Southeast 466 863 25,000  Level Cleveland Center
Sat 14:38:11 41.0761 -80.5500 133° Southeast 466 863 25,000  Level Cleveland Center
Sat 14:40:11 40.8944 -80.3031 134° Southeast 466 863 25,000  Level Cleveland Center
Sat 14:41:11 40.8106 -80.1744 131° Southeast 466 863 25,000  Level Cleveland Center
Sat 14:42:11 40.7517 -80.0131 116° Southeast 477 884 25,000  Level Cleveland Center
Sat 14:43:11 40.7008 -79.8656 114° Southeast 477 884 25,000  Level Cleveland Center
Sat 14:44:11 40.6411 -79.7047 116° Southeast 482 893 25,000  Level Cleveland Center
Sat 14:45:11 40.5836 -79.5442 115° Southeast 482 893 25,000  Level Cleveland Center
Sat 14:46:11 40.5361 -79.3728 110° East 482 893 25,000  Level Cleveland Center
Sat 14:47:11 40.5025 -79.1797 103° East 487 901 25,000  Level Cleveland Center
Sat 14:48:11 40.4797 -79.0164 100° East 496 919 25,000  Level Cleveland Center
Sat 14:49:11 40.4500 -78.8397 102° East 501 929 25,000  Level Cleveland Center
Sat 14:50:11 40.4242 -78.6603 101° East 501 929 25,000  Level Cleveland Center
Sat 14:51:11 40.3961 -78.4867 102° East 501 929 25,000  Level Cleveland Center
Sat 14:52:11 40.3697 -78.3131 101° East 496 919 25,000  Level Cleveland Center
Sat 14:53:47 40.3236 -78.0350 102° East 485 898 25,000  Level New York Center
Sat 14:54:47 40.3117 -77.8542 95° East 491 909 25,000 -446 Level New York Center
Sat 14:55:48 40.3058 -77.6711 92° East 496 919 24,100 -908 Descending New York Center
Sat 14:56:46 40.2889 -77.4950 97° East 496 919 23,200 -1,017 Descending New York Center
Sat 14:57:46 40.2697 -77.3164 98° East 496 919 22,100 -843 Descending New York Center
Sat 14:58:47 40.2450 -77.1208 99° East 491 909 21,500 -893 Descending New York Center
Sat 14:59:47 40.2250 -76.9478 99° East 486 900 20,300 -1,587 Descending New York Center
Sat 15:00:48 40.2083 -76.7858 98° East 469 869 18,300 -2,218 Descending New York Center
Sat 15:01:46 40.1911 -76.6267 98° East 447 827 15,900 -4,220 Descending New York Center
Sat 15:02:46 40.1750 -76.4894 99° East 427 790 10,000 -2,237 Descending New York Center
Sat 15:03:44 40.1556 -76.3331 99° East 401 742 11,500 538 Climbing FAA TRACON SMA TRACON (SMA)
Sat 15:04:04 40.1500 -76.2894 99° East 398 737 10,700 -1,950 Descending FAA TRACON SMA TRACON (SMA)
Sat 15:04:24 40.1428 -76.2361 100° East 392 726 10,200 -900 Descending FAA TRACON SMA TRACON (SMA)
Sat 15:04:44 40.1378 -76.1972 100° East 385 713 10,100 -150 Descending FAA TRACON SMA TRACON (SMA)
Sat 15:05:04 40.1339 -76.1592 98° East 350 649 10,100 -1,050 Level FAA TRACON SMA TRACON (SMA)
Sat 15:05:24 40.1269 -76.1133 101° East 328 607 9,400 -1,650 Descending FAA TRACON SMA TRACON (SMA)
Sat 15:05:44 40.1239 -76.0797 97° East 327 605 9,000 -1,538 Descending FAA TRACON SMA TRACON (SMA)
Sat 15:06:03 40.1183 -76.0414 101° East 327 605 8,400 -1,800 Descending FAA TRACON SMA TRACON (SMA)
Sat 15:06:24 40.1136 -75.9969 98° East 323 599 7,800 -1,800 Descending FAA TRACON SMA TRACON (SMA)
Sat 15:06:43 40.1092 -75.9617 99° East 323 599 7,200 -1,385 Descending FAA TRACON SMA TRACON (SMA)
Sat 15:07:03 40.1042 -75.9264 100° East 322 597 6,900 -750 Descending FAA TRACON SMA TRACON (SMA)
Sat 15:07:23 40.1000 -75.8914 99° East 316 586 6,700 -900 Descending FAA TRACON SMA TRACON (SMA)
Sat 15:07:43 40.0950 -75.8514 99° East 297 550 6,300 -1,024 Descending FAA TRACON SMA TRACON (SMA)
Sat 15:08:04 40.0914 -75.8197 98° East 291 539 6,000 -439 Descending FAA TRACON SMA TRACON (SMA)
Sat 15:08:24 40.0881 -75.7875 98° East 289 536 6,000  Level FAA TRACON SMA TRACON (SMA)
Sat 15:08:44 40.0825 -75.7461 100° East 289 536 6,000  Level FAA TRACON SMA TRACON (SMA)
Sat 15:09:04 40.0803 -75.7156 95° East 302 560 6,000  Level FAA TRACON SMA TRACON (SMA)
Sat 15:09:24 40.0794 -75.6842 92° East 279 517 6,000  Level FAA TRACON SMA TRACON (SMA)
Sat 15:09:44 40.0772 -75.6428 94° East 292 541 6,000  Level FAA TRACON SMA TRACON (SMA)
Sat 15:10:04 40.0761 -75.6108 93° East 290 538 6,000  Level FAA TRACON SMA TRACON (SMA)
Sat 15:10:24 40.0742 -75.5717 94° East 288 533 6,000  Level FAA TRACON SMA TRACON (SMA)
Sat 15:10:44 40.0725 -75.5378 94° East 290 538 6,000  Level FAA TRACON SMA TRACON (SMA)
Sat 15:11:04 40.0708 -75.5053 94° East 290 538 6,000  Level FAA TRACON SMA TRACON (SMA)
Sat 15:11:24 40.0694 -75.4733 93° East 289 536 6,000  Level FAA TRACON SMA TRACON (SMA)
Sat 15:11:44 40.0689 -75.4339 91° East 289 536 6,000  Level FAA TRACON SMA TRACON (SMA)
Sat 15:12:04 40.0661 -75.4022 97° East 291 539 6,000 -450 Level FAA TRACON SMA TRACON (SMA)
Sat 15:12:24 40.0608 -75.3683 101° East 280 518 5,700 -1,200 Descending FAA TRACON SMA TRACON (SMA)
Sat 15:12:44 40.0542 -75.3292 103° East 287 531 5,200 -1,350 Descending FAA TRACON SMA TRACON (SMA)
Sat 15:13:04 40.0489 -75.2992 103° East 276 512 4,800 -1,350 Descending FAA TRACON SMA TRACON (SMA)
Sat 15:13:24 40.0436 -75.2686 103° East 274 507 4,300 -1,200 Descending FAA TRACON SMA TRACON (SMA)
Sat 15:13:44 40.0383 -75.2322 101° East 279 517 4,000 -450 Descending FAA TRACON SMA TRACON (SMA)
Sat 15:14:04 40.0322 -75.2025 105° East 278 515 4,000  Level FAA TRACON SMA TRACON (SMA)
Sat 15:14:25 40.0236 -75.1719 110° East 275 509 4,000 -585 Level FAA TRACON SMA TRACON (SMA)
Sat 15:14:45 40.0044 -75.1436 131° Southeast 273 505 3,600 -1,200 Descending FAA TRACON SMA TRACON (SMA)
Sat 15:15:05 39.9875 -75.1269 143° Southeast 243 451 3,200 -1,050 Descending FAA TRACON SMA TRACON (SMA)
Sat 15:15:25 39.9694 -75.1139 151° Southeast 240 444 2,900 -1,050 Descending FAA TRACON SMA TRACON (SMA)
Sat 15:15:45 39.9478 -75.1067 166° South 228 422 2,500 -1,231 Descending FAA TRACON SMA TRACON (SMA)
Sat 15:16:04 39.9303 -75.1053 177° South 228 422 2,100 -615 Descending FAA TRACON SMA TRACON (SMA)
Sat 15:16:24 39.9128 -75.1103 192° South 186 344 2,100 -450 Level FAA TRACON SMA TRACON (SMA)
Sat 15:16:44 39.9011 -75.1228 219° Southwest 178 330 1,800 -1,050 Descending FAA TRACON SMA TRACON (SMA)
Sat 15:17:04 39.8917 -75.1433 239° Southwest 164 304 1,400 -1,050 Descending FAA TRACON SMA TRACON (SMA)
Sat 15:17:24 39.8881 -75.1597 254° West 150 278 1,100 -900 Descending FAA TRACON SMA TRACON (SMA)
Sat 15:17:44 39.8853 -75.1750 257° West 144 267 800 -732 Descending FAA TRACON SMA TRACON (SMA)
Sat 15:18:05 39.8814 -75.1928 254° West 137 254 600 -585 Descending FAA TRACON SMA TRACON (SMA)
Sat 15:18:25 39.8783 -75.2072 255° West 134 248 400 -600 Descending FAA TRACON SMA TRACON (SMA)
Sat 15:18:45 39.8764 -75.2178 257° West 133 246 200 -200 Descending FAA TRACON SMA TRACON (SMA)
Sat 15:19:25 39.8764 -75.2178 123° Southeast 133 246 200  Level FAA TRACON SMA TRACON (SMA)

Login

Don't have an account? Register now (free) for customized features, flight alerts, and more!